Time;durP1;ratioP1;P1;durP2;ratioP2;P2;SDS_P1;SDS_P2;PMS_P1;PMS_P2;Temp;Humidity;BMP_temperature;BMP_pressure;BME280_temperature;BME280_humidity;BME280_pressure;Samples;Min_cycle;Max_cycle;Signal;HPM_P1;HPM_P2
2024/02/22 00:00:18;;;;;;;3.17;0.50;;;6.40;99.90;;;;;;5012541;28;20554;-62
2024/02/22 00:03:04;;;;;;;1.00;0.75;;;6.40;99.90;;;;;;5017616;28;20742;-63
2024/02/22 00:05:50;;;;;;;0.40;0.40;;;6.40;99.90;;;;;;5015598;28;20041;-63
2024/02/22 00:08:36;;;;;;;0.50;0.37;;;6.40;99.90;;;;;;5015268;28;20062;-64
2024/02/22 00:11:22;;;;;;;0.57;0.43;;;6.40;99.90;;;;;;5016479;28;20410;-63
2024/02/22 00:14:08;;;;;;;0.60;0.30;;;6.40;99.90;;;;;;5017569;28;20279;-63
2024/02/22 00:16:54;;;;;;;0.82;0.40;;;6.40;99.90;;;;;;5016983;28;20064;-63
2024/02/22 00:19:40;;;;;;;2.17;0.60;;;6.40;99.90;;;;;;5011091;28;20394;-64
2024/02/22 00:22:26;;;;;;;0.30;0.30;;;6.50;99.90;;;;;;5004048;28;20779;-63
2024/02/22 00:25:12;;;;;;;1.60;0.40;;;6.50;99.90;;;;;;5016403;28;20040;-63
2024/02/22 00:27:58;;;;;;;0.57;0.43;;;6.50;99.90;;;;;;5016283;28;20108;-63
2024/02/22 00:30:44;;;;;;;0.30;0.30;;;6.50;99.90;;;;;;5005402;28;20033;-63
2024/02/22 00:33:30;;;;;;;0.30;0.30;;;6.50;99.90;;;;;;5021323;28;20040;-63
2024/02/22 00:36:17;;;;;;;0.60;0.38;;;6.50;99.90;;;;;;5005061;28;20116;-63
2024/02/22 00:39:03;;;;;;;0.45;0.30;;;6.50;99.90;;;;;;5016099;28;20410;-63
2024/02/22 00:41:49;;;;;;;0.27;0.20;;;6.50;99.90;;;;;;5010415;28;20150;-63
2024/02/22 00:44:35;;;;;;;0.57;0.20;;;6.50;99.90;;;;;;5006487;28;20055;-63
2024/02/22 00:47:21;;;;;;;0.40;0.40;;;6.60;99.90;;;;;;5012132;28;20041;-63
2024/02/22 00:50:08;;;;;;;0.85;0.30;;;6.50;99.90;;;;;;5011765;28;20065;-63
2024/02/22 00:52:55;;;;;;;0.68;0.40;;;6.50;99.90;;;;;;5004464;28;20755;-63
2024/02/22 00:55:41;;;;;;;0.68;0.30;;;6.60;99.90;;;;;;5006814;28;20040;-63
2024/02/22 00:58:27;;;;;;;0.50;0.40;;;6.60;99.90;;;;;;5007896;28;20030;-63
2024/02/22 01:01:14;;;;;;;1.58;0.70;;;6.50;99.90;;;;;;5006603;28;20121;-63
2024/02/22 01:04:01;;;;;;;0.85;0.50;;;6.60;99.90;;;;;;4999623;28;20057;-63
2024/02/22 01:06:47;;;;;;;0.47;0.40;;;6.60;99.90;;;;;;5005487;28;20038;-63
2024/02/22 01:09:33;;;;;;;0.27;0.20;;;6.50;99.90;;;;;;5016232;28;20194;-63
2024/02/22 01:12:19;;;;;;;0.20;0.20;;;6.60;99.90;;;;;;5005965;28;20038;-63
2024/02/22 01:15:06;;;;;;;0.35;0.28;;;6.60;99.90;;;;;;5014058;28;20045;-63
2024/02/22 01:17:52;;;;;;;0.20;0.15;;;6.60;99.90;;;;;;5016568;28;20042;-63
2024/02/22 01:20:38;;;;;;;0.22;0.20;;;6.60;99.90;;;;;;5020630;28;20041;-63
2024/02/22 01:23:24;;;;;;;0.40;0.30;;;6.60;99.90;;;;;;5023735;28;20053;-63
2024/02/22 01:26:10;;;;;;;0.20;0.20;;;6.60;99.90;;;;;;5011429;28;20041;-63
2024/02/22 01:28:56;;;;;;;0.65;0.47;;;6.60;99.90;;;;;;5016529;28;20139;-63
2024/02/22 01:31:42;;;;;;;0.65;0.20;;;6.60;99.90;;;;;;5008203;28;20125;-63
2024/02/22 01:34:27;;;;;;;0.25;0.20;;;6.60;99.90;;;;;;5014697;28;20034;-63
2024/02/22 01:37:14;;;;;;;0.30;0.20;;;6.60;99.90;;;;;;5010237;28;20029;-63
2024/02/22 01:40:00;;;;;;;;;;;6.60;99.90;;;;;;5015244;28;20821;-63
2024/02/22 01:42:47;;;;;;;0.70;0.38;;;6.60;99.90;;;;;;5011653;28;19959;-63
2024/02/22 01:45:33;;;;;;;0.20;0.20;;;6.60;99.90;;;;;;5012552;28;20041;-63
2024/02/22 01:48:19;;;;;;;2.20;0.32;;;6.60;99.90;;;;;;5016624;28;20119;-63
2024/02/22 01:51:06;;;;;;;0.37;0.30;;;6.70;99.90;;;;;;5014401;28;20113;-63
2024/02/22 01:53:53;;;;;;;0.43;0.28;;;6.60;99.90;;;;;;5011437;28;20026;-63
2024/02/22 01:56:39;;;;;;;;;;;6.60;99.90;;;;;;5009339;28;20434;-63
2024/02/22 01:59:26;;;;;;;0.10;0.10;;;6.60;99.90;;;;;;5014481;28;19913;-63
2024/02/22 02:02:11;;;;;;;;;;;6.60;99.90;;;;;;5009189;28;20100;-63
2024/02/22 02:04:58;;;;;;;0.52;0.20;;;6.70;99.90;;;;;;5018139;28;19913;-63
2024/02/22 02:07:45;;;;;;;0.20;0.20;;;6.70;99.90;;;;;;5005729;28;20860;-63
2024/02/22 02:10:30;;;;;;;;;;;6.70;99.90;;;;;;5020199;28;20049;-62
2024/02/22 02:13:16;;;;;;;0.20;0.20;;;6.70;99.90;;;;;;5009833;28;19920;-63
2024/02/22 02:16:03;;;;;;;0.10;0.10;;;6.70;99.90;;;;;;5011461;28;20033;-63
2024/02/22 02:18:49;;;;;;;;;;;6.70;99.90;;;;;;5012890;28;20072;-63
2024/02/22 02:22:07;;;;;;;0.35;0.10;;;6.60;99.90;;;;;;5007787;28;19958;-63
2024/02/22 02:25:00;;;;;;;0.20;0.20;;;6.70;99.90;;;;;;5012425;28;20045;-63
2024/02/22 02:27:47;;;;;;;0.35;0.20;;;6.70;99.90;;;;;;5019220;28;20108;-63
2024/02/22 02:30:33;;;;;;;0.20;0.20;;;6.70;99.90;;;;;;5020111;28;20592;-63
2024/02/22 02:33:18;;;;;;;0.30;0.20;;;6.70;99.90;;;;;;5011709;28;20105;-63
2024/02/22 02:36:05;;;;;;;0.15;0.10;;;6.80;99.90;;;;;;5011110;28;20148;-63
2024/02/22 02:38:51;;;;;;;0.17;0.17;;;6.80;99.90;;;;;;5004495;28;20121;-63
2024/02/22 02:41:37;;;;;;;0.20;0.20;;;6.80;99.90;;;;;;5006216;28;20132;-63
2024/02/22 02:44:23;;;;;;;0.17;0.17;;;6.80;99.90;;;;;;5015483;28;20049;-63
2024/02/22 02:47:09;;;;;;;0.10;0.10;;;6.80;99.90;;;;;;5008639;28;20266;-63
2024/02/22 02:49:55;;;;;;;0.10;0.10;;;6.80;99.90;;;;;;5009738;28;20037;-63
2024/02/22 02:52:41;;;;;;;0.10;0.10;;;6.80;99.90;;;;;;5011270;28;20029;-63
2024/02/22 02:55:26;;;;;;;0.75;0.20;;;6.80;99.90;;;;;;5014018;28;20042;-63
2024/02/22 02:58:12;;;;;;;0.27;0.10;;;6.80;99.90;;;;;;5008490;28;20506;-63
2024/02/22 03:00:58;;;;;;;4.80;0.28;;;6.80;99.90;;;;;;5013304;28;20485;-63
2024/02/22 03:03:44;;;;;;;0.10;0.10;;;6.80;99.90;;;;;;5008427;28;20490;-63
2024/02/22 03:06:30;;;;;;;0.10;0.10;;;6.80;99.90;;;;;;5003765;28;20045;-63
2024/02/22 03:09:16;;;;;;;1.20;0.10;;;6.80;99.90;;;;;;5016398;28;20110;-63
2024/02/22 03:12:02;;;;;;;0.20;0.20;;;6.90;99.90;;;;;;5013308;28;20037;-63
2024/02/22 03:14:49;;;;;;;0.10;0.10;;;6.90;99.90;;;;;;5005019;28;20037;-63
2024/02/22 03:17:35;;;;;;;0.20;0.15;;;6.90;99.90;;;;;;5004532;28;20048;-63
2024/02/22 03:20:21;;;;;;;0.10;0.10;;;6.90;99.90;;;;;;5016872;28;20099;-63
2024/02/22 03:23:07;;;;;;;0.10;0.10;;;6.90;99.90;;;;;;5009418;28;20041;-63
2024/02/22 03:25:54;;;;;;;0.10;0.10;;;6.90;99.90;;;;;;5008528;28;20483;-63
2024/02/22 03:28:39;;;;;;;2.58;0.10;;;6.90;99.90;;;;;;5013415;28;20138;-63
2024/02/22 03:31:25;;;;;;;0.10;0.10;;;6.90;99.90;;;;;;5013117;28;20707;-63
2024/02/22 03:34:11;;;;;;;0.10;0.10;;;6.90;99.90;;;;;;5007897;28;20435;-63
2024/02/22 03:36:57;;;;;;;0.10;0.10;;;6.90;99.90;;;;;;5009572;28;20096;-63
2024/02/22 03:39:49;;;;;;;0.10;0.10;;;6.90;99.90;;;;;;5008380;28;20484;-63
2024/02/22 03:42:35;;;;;;;0.10;0.10;;;6.90;99.90;;;;;;5003993;28;20040;-63
2024/02/22 03:45:21;;;;;;;0.55;0.10;;;7.00;99.90;;;;;;5005398;28;20141;-63
2024/02/22 03:48:07;;;;;;;0.10;0.10;;;7.00;99.90;;;;;;5013767;28;20055;-63
2024/02/22 03:50:53;;;;;;;0.10;0.10;;;7.00;99.90;;;;;;5012009;28;20037;-63
2024/02/22 03:53:39;;;;;;;0.10;0.10;;;7.00;99.90;;;;;;5016679;28;20037;-63
2024/02/22 03:56:25;;;;;;;0.10;0.10;;;7.00;99.90;;;;;;5013754;28;20038;-63
2024/02/22 03:59:11;;;;;;;0.20;0.17;;;7.00;99.90;;;;;;5012930;28;20034;-63
2024/02/22 04:01:57;;;;;;;0.10;0.10;;;7.00;99.90;;;;;;5020091;28;20045;-63
2024/02/22 04:04:50;;;;;;;0.67;0.10;;;7.00;99.90;;;;;;5009569;28;20038;-63
2024/02/22 04:07:36;;;;;;;0.30;0.10;;;7.00;99.90;;;;;;5013193;28;20040;-63
2024/02/22 04:10:22;;;;;;;2.80;0.30;;;7.00;99.90;;;;;;5015506;28;20037;-63
2024/02/22 04:13:09;;;;;;;0.75;0.10;;;7.00;99.90;;;;;;5015193;28;20030;-63
2024/02/22 04:15:56;;;;;;;0.30;0.10;;;7.00;99.90;;;;;;5014712;28;20124;-63
2024/02/22 04:18:42;;;;;;;0.30;0.20;;;7.00;99.90;;;;;;5025067;28;20049;-63
2024/02/22 04:21:28;;;;;;;0.17;0.10;;;7.00;99.90;;;;;;5013514;28;20085;-63
2024/02/22 04:24:13;;;;;;;0.10;0.10;;;7.10;99.90;;;;;;5009277;28;20309;-63
2024/02/22 04:26:59;;;;;;;0.10;0.10;;;7.00;99.90;;;;;;5014525;28;20113;-63
2024/02/22 04:29:45;;;;;;;0.17;0.17;;;7.00;99.90;;;;;;5009911;28;20025;-63
2024/02/22 04:32:31;;;;;;;0.10;0.10;;;7.00;99.90;;;;;;5004483;28;20661;-63
2024/02/22 04:35:18;;;;;;;2.58;0.20;;;7.00;99.90;;;;;;5001896;28;20026;-63
2024/02/22 04:38:04;;;;;;;0.32;0.10;;;7.00;99.90;;;;;;5005486;28;20034;-63
2024/02/22 04:40:50;;;;;;;0.20;0.20;;;7.10;99.90;;;;;;5001732;28;20053;-63
2024/02/22 04:43:35;;;;;;;0.10;0.10;;;7.00;99.90;;;;;;5003281;28;20555;-64
2024/02/22 04:46:21;;;;;;;0.10;0.10;;;7.00;99.90;;;;;;5000787;28;20128;-63
2024/02/22 04:49:09;;;;;;;0.10;0.10;;;7.00;99.90;;;;;;5007427;28;20034;-63
2024/02/22 04:51:56;;;;;;;0.25;0.10;;;7.10;99.90;;;;;;5001409;28;20558;-63
2024/02/22 04:54:41;;;;;;;0.45;0.20;;;7.10;99.90;;;;;;5003816;28;20064;-63
2024/02/22 04:57:27;;;;;;;0.10;0.10;;;7.10;99.90;;;;;;5005716;28;20041;-64
2024/02/22 05:00:14;;;;;;;0.10;0.10;;;7.10;99.90;;;;;;5002668;28;20554;-63
2024/02/22 05:03:00;;;;;;;0.20;0.10;;;7.10;99.90;;;;;;5023175;28;20117;-63
2024/02/22 05:05:46;;;;;;;3.72;0.10;;;7.10;99.90;;;;;;5018045;28;20041;-63
2024/02/22 05:08:32;;;;;;;0.10;0.10;;;7.10;99.90;;;;;;5025859;28;20040;-63
2024/02/22 05:11:17;;;;;;;0.22;0.15;;;7.10;99.90;;;;;;5024039;28;20178;-63
2024/02/22 05:14:04;;;;;;;1.90;0.10;;;7.10;99.90;;;;;;5021228;28;20029;-63
2024/02/22 05:16:50;;;;;;;0.32;0.10;;;7.10;99.90;;;;;;5021225;28;20037;-63
2024/02/22 05:19:35;;;;;;;0.10;0.10;;;7.10;99.90;;;;;;5018227;28;20072;-63
2024/02/22 05:22:21;;;;;;;2.90;0.10;;;7.10;99.90;;;;;;5020889;28;20094;-63
2024/02/22 05:25:08;;;;;;;0.10;0.10;;;7.20;99.90;;;;;;5024558;28;20088;-63
2024/02/22 05:27:54;;;;;;;0.10;0.10;;;7.10;99.90;;;;;;5021983;28;20087;-63
2024/02/22 05:30:41;;;;;;;0.10;0.10;;;7.10;99.90;;;;;;5019047;28;20678;-63
2024/02/22 05:33:26;;;;;;;0.10;0.10;;;7.10;99.90;;;;;;5026009;28;20088;-63
2024/02/22 05:36:12;;;;;;;0.52;0.20;;;7.10;99.90;;;;;;5022166;28;20133;-63
2024/02/22 05:39:01;;;;;;;0.10;0.10;;;7.10;99.90;;;;;;5023533;28;20029;-63
2024/02/22 05:41:47;;;;;;;0.22;0.20;;;7.20;99.90;;;;;;5023503;28;20429;-63
2024/02/22 05:44:33;;;;;;;0.43;0.25;;;7.20;99.90;;;;;;5018960;28;20033;-64
2024/02/22 05:47:19;;;;;;;0.10;0.10;;;7.20;99.90;;;;;;5020742;28;20568;-63
2024/02/22 05:50:05;;;;;;;0.28;0.15;;;7.20;99.90;;;;;;5025568;28;20033;-62
2024/02/22 05:52:51;;;;;;;0.10;0.10;;;7.20;99.90;;;;;;5021327;28;20048;-63
2024/02/22 05:55:37;;;;;;;0.20;0.20;;;7.20;99.90;;;;;;5022776;28;20351;-64
2024/02/22 05:58:23;;;;;;;0.40;0.20;;;7.20;99.90;;;;;;5021840;28;20044;-64
2024/02/22 06:01:11;;;;;;;0.17;0.10;;;7.20;99.90;;;;;;5020754;28;20220;-64
2024/02/22 06:03:56;;;;;;;0.13;0.13;;;7.30;99.90;;;;;;5024169;28;20620;-64
2024/02/22 06:06:42;;;;;;;0.10;0.10;;;7.20;99.90;;;;;;5021848;28;20034;-64
2024/02/22 06:09:28;;;;;;;1.00;0.20;;;7.20;99.90;;;;;;5024109;28;20037;-62
2024/02/22 06:12:14;;;;;;;0.10;0.10;;;7.20;99.90;;;;;;5025210;28;20074;-62
2024/02/22 06:15:00;;;;;;;0.20;0.10;;;7.20;99.90;;;;;;5022127;28;20037;-63
2024/02/22 06:17:46;;;;;;;0.35;0.10;;;7.20;99.90;;;;;;5021494;28;20067;-62
2024/02/22 06:20:31;;;;;;;0.15;0.10;;;7.20;99.90;;;;;;5020763;28;20037;-63
2024/02/22 06:23:18;;;;;;;0.10;0.10;;;7.20;99.90;;;;;;5024634;28;20044;-62
2024/02/22 06:26:04;;;;;;;2.72;0.20;;;7.20;99.90;;;;;;5020609;28;20537;-63
2024/02/22 06:28:49;;;;;;;0.75;0.20;;;7.20;99.90;;;;;;5021719;28;20037;-63
2024/02/22 06:31:35;;;;;;;0.08;0.08;;;7.20;99.90;;;;;;5021057;28;20057;-63
2024/02/22 06:34:21;;;;;;;0.10;0.10;;;7.20;99.90;;;;;;5016030;28;20123;-63
2024/02/22 06:37:07;;;;;;;0.57;0.10;;;7.20;99.90;;;;;;5020632;28;20025;-64
2024/02/22 06:39:53;;;;;;;0.30;0.30;;;7.30;99.90;;;;;;5020625;28;20044;-64
2024/02/22 06:42:40;;;;;;;0.55;0.20;;;7.30;99.90;;;;;;5022270;28;20298;-64
2024/02/22 06:45:26;;;;;;;0.13;0.13;;;7.30;99.90;;;;;;5023345;28;20055;-64
2024/02/22 06:48:12;;;;;;;0.20;0.20;;;7.20;99.90;;;;;;5018099;28;20565;-62
2024/02/22 06:50:59;;;;;;;0.20;0.20;;;7.30;99.90;;;;;;5022119;28;20646;-61
2024/02/22 06:53:44;;;;;;;;;;;7.30;99.90;;;;;;5021028;28;20030;-62
2024/02/22 06:56:31;;;;;;;0.10;0.10;;;7.30;99.90;;;;;;5040283;28;19928;-63
2024/02/22 06:59:17;;;;;;;;;;;7.30;99.90;;;;;;5022893;28;20447;-62
2024/02/22 07:02:05;;;;;;;0.10;0.10;;;7.30;99.90;;;;;;5018696;28;19923;-64
2024/02/22 07:04:51;;;;;;;0.13;0.10;;;7.30;99.90;;;;;;5019354;28;20499;-63
2024/02/22 07:07:36;;;;;;;0.32;0.20;;;7.40;99.90;;;;;;5016141;28;20060;-63
2024/02/22 07:10:23;;;;;;;0.17;0.15;;;7.40;99.90;;;;;;5021731;28;20033;-63
2024/02/22 07:13:09;;;;;;;0.20;0.13;;;7.40;99.90;;;;;;5020817;28;20674;-63
2024/02/22 07:15:54;;;;;;;0.30;0.10;;;7.40;99.90;;;;;;5018739;28;20074;-63
2024/02/22 07:18:41;;;;;;;0.50;0.10;;;7.40;99.90;;;;;;5019753;28;20034;-63
2024/02/22 07:21:34;;;;;;;1.55;0.63;;;7.50;99.90;;;;;;5018280;28;20037;-63
2024/02/22 07:24:20;;;;;;;0.20;0.10;;;7.40;99.90;;;;;;5042429;28;20083;-64
2024/02/22 07:27:07;;;;;;;2.92;0.20;;;7.50;99.90;;;;;;5034282;28;20032;-63
2024/02/22 07:29:53;;;;;;;;;;;7.50;99.90;;;;;;5038263;28;20068;-65
2024/02/22 07:32:39;;;;;;;0.45;0.10;;;7.50;99.90;;;;;;5035479;28;19917;-64
2024/02/22 07:35:25;;;;;;;0.97;0.30;;;7.60;99.90;;;;;;5042818;28;20025;-65
2024/02/22 07:38:10;;;;;;;0.20;0.10;;;7.60;99.90;;;;;;5043763;28;20663;-64
2024/02/22 07:43:32;;;;;;;1.27;0.20;;;7.60;99.90;;;;;;5233324;22;20087;-66
2024/02/22 07:46:18;;;;;;;0.20;0.20;;;7.60;99.90;;;;;;5055629;28;20103;-66
2024/02/22 07:49:05;;;;;;;0.25;0.25;;;7.60;99.90;;;;;;5042888;28;20738;-66
2024/02/22 07:51:51;;;;;;;0.63;0.20;;;7.60;99.90;;;;;;5038172;28;20033;-66
2024/02/22 07:54:38;;;;;;;0.10;0.10;;;7.70;99.90;;;;;;5044716;28;20029;-66
2024/02/22 07:57:24;;;;;;;0.30;0.20;;;7.70;99.90;;;;;;5029450;28;20158;-66
2024/02/22 08:00:10;;;;;;;0.50;0.40;;;7.70;99.90;;;;;;5050129;28;20167;-66
2024/02/22 08:02:56;;;;;;;1.48;0.65;;;7.80;99.90;;;;;;5043201;28;20052;-66
2024/02/22 08:05:42;;;;;;;1.63;0.75;;;7.90;99.90;;;;;;5041142;28;20032;-66
2024/02/22 08:08:29;;;;;;;0.82;0.50;;;8.00;99.90;;;;;;5040742;28;20032;-66
2024/02/22 08:11:15;;;;;;;0.93;0.50;;;8.00;99.90;;;;;;5047188;28;20055;-67
2024/02/22 08:14:01;;;;;;;0.20;0.20;;;7.90;99.90;;;;;;5045798;28;20120;-67
2024/02/22 08:16:48;;;;;;;1.77;0.40;;;7.90;99.90;;;;;;5042279;28;20124;-66
2024/02/22 08:19:34;;;;;;;0.75;0.28;;;7.90;99.90;;;;;;5040263;28;20033;-66
2024/02/22 08:22:20;;;;;;;0.43;0.30;;;8.00;99.90;;;;;;5041330;28;20068;-67
2024/02/22 08:25:07;;;;;;;0.20;0.20;;;8.10;99.90;;;;;;5040983;28;20033;-67
2024/02/22 08:27:54;;;;;;;0.20;0.20;;;8.20;99.90;;;;;;5041128;28;20051;-67
2024/02/22 08:30:41;;;;;;;1.23;0.15;;;8.20;99.90;;;;;;5050584;28;20048;-66
2024/02/22 08:33:28;;;;;;;0.50;0.30;;;8.30;99.90;;;;;;5068963;28;23253;-67
2024/02/22 08:36:13;;;;;;;0.73;0.20;;;8.30;99.90;;;;;;5069292;28;20040;-66
2024/02/22 08:38:59;;;;;;;0.77;0.30;;;8.30;99.90;;;;;;5065289;28;20039;-67
2024/02/22 08:41:45;;;;;;;0.25;0.25;;;8.40;99.90;;;;;;5065520;28;20591;-66
2024/02/22 08:44:31;;;;;;;0.30;0.30;;;8.50;99.90;;;;;;5061902;28;20037;-66
2024/02/22 08:47:17;;;;;;;1.43;0.40;;;8.50;99.90;;;;;;5067252;28;20029;-65
2024/02/22 08:50:04;;;;;;;0.60;0.60;;;8.50;99.90;;;;;;5069860;28;20032;-66
2024/02/22 08:52:50;;;;;;;0.32;0.30;;;8.40;99.90;;;;;;5057513;28;20039;-66
2024/02/22 08:55:36;;;;;;;0.40;0.30;;;8.50;99.90;;;;;;5082204;28;20057;-66
2024/02/22 08:58:22;;;;;;;0.95;0.30;;;8.50;99.90;;;;;;5073981;28;20048;-66
2024/02/22 09:01:08;;;;;;;0.28;0.28;;;8.50;99.90;;;;;;5067481;28;20055;-66
2024/02/22 09:03:54;;;;;;;1.25;0.45;;;8.50;99.90;;;;;;5072810;28;20196;-66
2024/02/22 09:06:39;;;;;;;0.80;0.30;;;8.50;99.90;;;;;;5064248;28;20029;-66
2024/02/22 09:09:25;;;;;;;0.10;0.10;;;8.40;99.90;;;;;;5076898;28;20028;-66
2024/02/22 09:12:12;;;;;;;0.28;0.28;;;8.40;99.90;;;;;;5072350;28;20401;-66
2024/02/22 09:14:58;;;;;;;0.20;0.20;;;8.40;99.90;;;;;;5072771;28;20042;-66
2024/02/22 09:17:44;;;;;;;0.60;0.20;;;8.40;99.90;;;;;;5070034;28;20474;-65
2024/02/22 09:20:30;;;;;;;0.60;0.30;;;8.60;99.90;;;;;;5073058;28;20540;-66
2024/02/22 09:23:16;;;;;;;0.17;0.17;;;8.70;99.90;;;;;;5056304;28;20027;-66
2024/02/22 09:26:03;;;;;;;0.10;0.10;;;8.70;99.90;;;;;;5070752;28;20035;-66
2024/02/22 09:28:49;;;;;;;0.17;0.10;;;8.90;99.90;;;;;;5064443;28;20216;-66
2024/02/22 09:31:35;;;;;;;0.40;0.20;;;8.90;99.90;;;;;;5072419;28;20066;-66
2024/02/22 09:34:24;;;;;;;0.30;0.15;;;9.00;99.90;;;;;;5066373;28;20112;-66
2024/02/22 09:37:10;;;;;;;0.20;0.20;;;9.00;99.90;;;;;;5067471;28;20111;-65
2024/02/22 09:39:55;;;;;;;0.28;0.15;;;9.10;99.90;;;;;;5071323;28;20136;-66
2024/02/22 09:42:43;;;;;;;0.10;0.10;;;9.10;99.90;;;;;;5072763;28;20048;-66
2024/02/22 09:45:29;;;;;;;0.10;0.10;;;9.10;99.90;;;;;;5069936;28;20051;-66
2024/02/22 09:48:15;;;;;;;7.32;2.38;;;9.20;99.90;;;;;;5065768;28;20098;-66
2024/02/22 09:51:04;;;;;;;0.20;0.20;;;9.30;99.90;;;;;;5070182;28;20222;-66
2024/02/22 09:53:51;;;;;;;0.10;0.10;;;9.30;99.90;;;;;;5074623;28;20569;-66
2024/02/22 09:56:41;;;;;;;0.40;0.20;;;9.40;99.90;;;;;;5068271;28;20382;-68
2024/02/22 09:59:27;;;;;;;0.17;0.10;;;9.50;99.90;;;;;;5051088;28;20488;-66
2024/02/22 10:02:14;;;;;;;0.65;0.20;;;9.60;99.90;;;;;;5067328;28;20050;-66
2024/02/22 10:05:00;;;;;;;2.78;0.20;;;9.50;99.90;;;;;;5052488;28;20079;-66
2024/02/22 10:07:46;;;;;;;0.10;0.10;;;9.50;99.90;;;;;;5064622;28;20028;-66
2024/02/22 10:10:32;;;;;;;0.52;0.10;;;9.50;99.90;;;;;;5068177;28;20040;-66
2024/02/22 10:13:20;;;;;;;0.20;0.20;;;9.60;99.90;;;;;;5066422;28;20362;-66
2024/02/22 10:16:14;;;;;;;0.13;0.10;;;9.70;99.90;;;;;;5045980;28;20440;-66
2024/02/22 10:19:00;;;;;;;2.40;0.20;;;9.80;99.90;;;;;;5068063;28;20172;-66
2024/02/22 10:21:46;;;;;;;0.10;0.10;;;9.90;99.90;;;;;;5065326;28;20044;-66
2024/02/22 10:24:33;;;;;;;0.10;0.10;;;9.80;99.90;;;;;;5051355;28;20108;-66
2024/02/22 10:27:21;;;;;;;;;;;9.90;99.90;;;;;;5066211;28;20067;-66
2024/02/22 10:30:11;;;;;;;0.20;0.17;;;10.20;99.90;;;;;;5068785;28;19912;-66
2024/02/22 10:35:34;;;;;;;0.10;0.10;;;10.70;99.90;;;;;;5017936;22;20116;-70
2024/02/22 10:38:20;;;;;;;0.17;0.15;;;10.80;99.90;;;;;;5034637;28;20052;-70
2024/02/22 10:41:10;;;;;;;0.47;0.20;;;11.00;99.90;;;;;;5028873;28;20184;-70
2024/02/22 10:43:59;;;;;;;0.30;0.10;;;11.00;99.90;;;;;;5029831;28;20387;-70
2024/02/22 10:46:47;;;;;;;0.50;0.17;;;11.00;99.90;;;;;;5038151;28;20119;-67
2024/02/22 10:49:34;;;;;;;0.17;0.17;;;11.10;99.90;;;;;;5029246;28;20117;-66
2024/02/22 10:52:24;;;;;;;0.20;0.20;;;11.10;99.90;;;;;;5038087;28;20122;-65
2024/02/22 10:55:15;;;;;;;0.38;0.20;;;11.20;99.90;;;;;;5025182;28;20041;-65
2024/02/22 10:58:03;;;;;;;0.82;0.30;;;11.30;99.90;;;;;;5033465;28;20492;-65
2024/02/22 11:00:52;;;;;;;0.10;0.10;;;11.40;99.90;;;;;;5028163;28;20116;-65
2024/02/22 11:03:38;;;;;;;0.10;0.10;;;11.30;99.90;;;;;;5014998;28;20046;-65
2024/02/22 11:06:24;;;;;;;0.97;0.10;;;11.30;99.90;;;;;;5019401;28;20533;-65
2024/02/22 11:09:18;;;;;;;0.20;0.20;;;11.40;99.90;;;;;;5007428;28;20284;-65
2024/02/22 11:12:06;;;;;;;0.10;0.10;;;11.40;99.90;;;;;;5023945;28;20034;-65
2024/02/22 11:14:51;;;;;;;0.28;0.20;;;11.20;99.90;;;;;;5020485;28;20350;-65
2024/02/22 11:17:39;;;;;;;1.02;0.20;;;11.30;99.90;;;;;;5029178;28;20036;-65
2024/02/22 11:20:35;;;;;;;0.20;0.20;;;11.40;99.90;;;;;;5019035;28;20073;-65
2024/02/22 11:23:23;;;;;;;0.10;0.10;;;11.50;99.90;;;;;;5015077;28;20406;-66
2024/02/22 11:26:08;;;;;;;0.25;0.20;;;11.40;99.90;;;;;;5007125;28;20045;-66
2024/02/22 11:28:55;;;;;;;0.15;0.10;;;11.50;99.90;;;;;;5011873;28;20034;-66
2024/02/22 11:31:41;;;;;;;0.30;0.20;;;11.60;99.90;;;;;;5027336;28;20517;-66
2024/02/22 11:34:28;;;;;;;0.22;0.15;;;11.60;99.90;;;;;;5015374;28;20036;-66
2024/02/22 11:37:19;;;;;;;0.10;0.10;;;11.60;99.90;;;;;;5028176;28;20486;-65
2024/02/22 11:40:09;;;;;;;1.50;0.28;;;11.40;99.90;;;;;;5020242;28;22757;-65
2024/02/22 11:42:56;;;;;;;0.22;0.10;;;11.10;99.90;;;;;;5026481;28;20525;-65
2024/02/22 11:45:42;;;;;;;1.67;0.45;;;11.00;99.90;;;;;;5026685;28;20033;-65
2024/02/22 11:48:28;;;;;;;24.98;4.00;;;11.00;99.90;;;;;;5026188;28;20050;-66
2024/02/22 11:51:14;;;;;;;22.70;3.83;;;10.90;99.90;;;;;;5022687;28;20038;-65
2024/02/22 11:54:00;;;;;;;1.53;0.33;;;10.80;99.90;;;;;;5017240;28;20933;-66
2024/02/22 11:56:47;;;;;;;1.08;0.20;;;10.80;99.90;;;;;;5035674;28;20437;-66
2024/02/22 11:59:34;;;;;;;76.72;9.98;;;10.80;99.90;;;;;;5022899;28;20039;-67
2024/02/22 12:02:20;;;;;;;5.82;1.45;;;10.80;99.90;;;;;;5023489;28;20040;-66
2024/02/22 12:05:09;;;;;;;0.38;0.20;;;10.90;99.90;;;;;;5029476;28;20276;-67
2024/02/22 12:07:55;;;;;;;0.52;0.10;;;10.90;99.90;;;;;;5013538;28;20228;-66
2024/02/22 12:10:41;;;;;;;0.50;0.30;;;10.90;99.90;;;;;;5032484;28;20039;-66
2024/02/22 12:13:27;;;;;;;0.20;0.10;;;10.80;99.90;;;;;;5026601;28;20077;-66
2024/02/22 12:16:13;;;;;;;0.70;0.15;;;10.80;99.90;;;;;;5038369;28;20478;-66
2024/02/22 12:18:59;;;;;;;3.63;0.22;;;10.80;99.90;;;;;;5033383;28;20026;-65
2024/02/22 12:21:46;;;;;;;0.63;0.20;;;10.80;99.90;;;;;;5045731;28;20037;-65
2024/02/22 12:24:34;;;;;;;0.10;0.10;;;10.80;99.90;;;;;;5018804;28;20929;-66
2024/02/22 12:27:20;;;;;;;29.50;6.35;;;10.80;99.90;;;;;;5023767;28;20029;-66
2024/02/22 12:30:08;;;;;;;11.50;2.78;;;10.80;99.90;;;;;;5034013;28;20059;-66
2024/02/22 12:32:54;;;;;;;49.15;8.10;;;10.70;99.90;;;;;;5038384;28;20061;-66
2024/02/22 12:35:39;;;;;;;1.00;0.30;;;10.80;99.90;;;;;;5027514;28;20033;-66
2024/02/22 12:38:25;;;;;;;0.22;0.10;;;10.90;99.90;;;;;;5035544;28;20033;-66
2024/02/22 12:41:16;;;;;;;0.45;0.20;;;10.90;99.90;;;;;;5032540;28;20090;-66
2024/02/22 12:44:01;;;;;;;0.45;0.10;;;10.90;99.90;;;;;;5030119;28;20040;-66
2024/02/22 12:46:48;;;;;;;0.10;0.10;;;10.90;99.90;;;;;;5037083;28;20033;-66
2024/02/22 12:49:38;;;;;;;0.10;0.10;;;10.80;99.90;;;;;;5030564;28;20520;-66
2024/02/22 12:52:23;;;;;;;0.25;0.22;;;10.60;99.90;;;;;;5045054;28;20040;-66
2024/02/22 12:55:09;;;;;;;0.60;0.15;;;10.60;99.90;;;;;;5021096;28;20037;-66
2024/02/22 12:57:55;;;;;;;0.43;0.17;;;10.60;99.90;;;;;;5023815;28;20073;-67
2024/02/22 13:00:41;;;;;;;0.20;0.10;;;10.50;99.90;;;;;;5017699;28;20077;-66
2024/02/22 13:03:27;;;;;;;0.25;0.20;;;10.50;99.90;;;;;;5023724;28;20095;-66
2024/02/22 13:06:14;;;;;;;0.40;0.30;;;10.40;99.90;;;;;;5023902;28;20025;-66
2024/02/22 13:09:00;;;;;;;1.00;0.25;;;10.40;99.90;;;;;;5018622;28;20042;-66
2024/02/22 13:11:47;;;;;;;0.10;0.10;;;10.50;99.90;;;;;;5025388;28;20041;-67
2024/02/22 13:14:32;;;;;;;1.45;0.20;;;10.50;99.90;;;;;;5028275;28;20113;-66
2024/02/22 13:17:19;;;;;;;0.38;0.20;;;10.60;99.90;;;;;;5019617;28;20036;-66
2024/02/22 13:20:08;;;;;;;1.80;0.28;;;10.70;99.90;;;;;;5020257;28;20042;-66
2024/02/22 13:22:55;;;;;;;0.20;0.20;;;10.70;99.90;;;;;;5032611;28;20033;-66
2024/02/22 13:25:41;;;;;;;0.20;0.20;;;10.70;99.90;;;;;;5023178;28;20045;-66
2024/02/22 13:28:27;;;;;;;0.20;0.20;;;10.60;99.90;;;;;;5016809;28;20030;-70
2024/02/22 13:31:13;;;;;;;0.10;0.10;;;10.60;99.90;;;;;;5031905;28;20037;-70
2024/02/22 13:33:59;;;;;;;1.30;0.30;;;10.60;99.90;;;;;;5029059;28;20079;-70
2024/02/22 13:36:45;;;;;;;0.20;0.20;;;10.50;99.90;;;;;;5026758;28;20414;-70
2024/02/22 13:39:31;;;;;;;0.10;0.10;;;10.30;99.90;;;;;;5028920;28;20041;-66
2024/02/22 13:42:17;;;;;;;0.65;0.20;;;10.20;99.90;;;;;;5018392;28;20033;-66
2024/02/22 13:45:07;;;;;;;0.10;0.10;;;10.10;99.90;;;;;;5020584;28;20040;-66
2024/02/22 13:47:52;;;;;;;0.10;0.10;;;10.10;99.90;;;;;;5031516;28;20122;-66
2024/02/22 13:50:39;;;;;;;0.10;0.10;;;10.10;99.90;;;;;;5030152;28;20025;-66
2024/02/22 13:53:25;;;;;;;;;;;10.10;99.90;;;;;;5025651;28;20040;-65
2024/02/22 13:56:11;;;;;;;0.10;0.10;;;10.20;99.90;;;;;;5027266;28;19958;-66
2024/02/22 13:58:57;;;;;;;0.10;0.10;;;10.20;99.90;;;;;;5030210;28;20265;-66
2024/02/22 14:01:43;;;;;;;0.10;0.10;;;10.20;99.90;;;;;;5027991;28;20777;-66
2024/02/22 14:04:29;;;;;;;1.08;0.10;;;10.20;99.90;;;;;;5016022;28;20037;-66
2024/02/22 14:07:15;;;;;;;0.20;0.10;;;10.20;99.90;;;;;;5026042;28;20120;-66
2024/02/22 14:10:02;;;;;;;0.22;0.20;;;10.20;99.90;;;;;;5025312;28;20210;-66
2024/02/22 14:12:48;;;;;;;0.25;0.13;;;10.30;99.90;;;;;;5025437;28;20033;-66
2024/02/22 14:15:38;;;;;;;0.40;0.20;;;10.40;99.90;;;;;;5022824;28;20029;-66
2024/02/22 14:18:24;;;;;;;1.08;0.20;;;10.30;99.90;;;;;;5008153;28;20201;-66
2024/02/22 14:21:13;;;;;;;0.10;0.10;;;10.30;99.90;;;;;;5027392;28;20029;-65
2024/02/22 14:23:59;;;;;;;0.38;0.20;;;10.20;99.90;;;;;;5009511;28;20055;-65
2024/02/22 14:26:45;;;;;;;0.10;0.10;;;10.20;99.90;;;;;;5035920;28;20048;-65
2024/02/22 14:29:33;;;;;;;1.30;0.20;;;10.10;99.90;;;;;;5021321;28;20048;-65
2024/02/22 14:32:19;;;;;;;0.20;0.20;;;10.10;99.90;;;;;;5022170;28;20437;-66
2024/02/22 14:35:05;;;;;;;0.25;0.20;;;10.10;99.90;;;;;;5021900;28;20034;-68
2024/02/22 14:37:51;;;;;;;0.98;0.20;;;10.00;99.90;;;;;;5021663;28;20041;-66
2024/02/22 14:40:37;;;;;;;0.30;0.30;;;10.00;99.90;;;;;;5032120;28;20029;-66